sensor_id;sensor_type;location;lat;lon;timestamp;pressure;altitude;pressure_sealevel;temperature;humidity
54924;BME280;40825;52.270;20.984;2023-03-01T00:02:00;101915.18;;;-1.91;72.75
54924;BME280;40825;52.270;20.984;2023-03-01T00:04:25;101913.88;;;-1.93;73.59
54924;BME280;40825;52.270;20.984;2023-03-01T00:06:52;101909.61;;;-1.96;73.18
54924;BME280;40825;52.270;20.984;2023-03-01T00:09:17;101906.67;;;-1.97;73.00
54924;BME280;40825;52.270;20.984;2023-03-01T00:11:43;101907.42;;;-1.98;73.57
54924;BME280;40825;52.270;20.984;2023-03-01T00:14:09;101900.96;;;-2.01;74.12
54924;BME280;40825;52.270;20.984;2023-03-01T00:16:39;101899.42;;;-2.02;73.83
54924;BME280;40825;52.270;20.984;2023-03-01T00:19:06;101897.52;;;-2.02;73.00
54924;BME280;40825;52.270;20.984;2023-03-01T00:21:32;101894.27;;;-2.03;73.84
54924;BME280;40825;52.270;20.984;2023-03-01T00:24:01;101888.41;;;-2.05;74.71
54924;BME280;40825;52.270;20.984;2023-03-01T00:26:27;101887.10;;;-2.07;76.55
54924;BME280;40825;52.270;20.984;2023-03-01T00:28:54;101886.35;;;-2.10;76.29
54924;BME280;40825;52.270;20.984;2023-03-01T00:31:23;101885.67;;;-2.10;75.35
54924;BME280;40825;52.270;20.984;2023-03-01T00:33:52;101879.93;;;-2.10;74.98
54924;BME280;40825;52.270;20.984;2023-03-01T00:36:19;101880.59;;;-2.10;74.54
54924;BME280;40825;52.270;20.984;2023-03-01T00:38:45;101877.71;;;-2.11;75.43
54924;BME280;40825;52.270;20.984;2023-03-01T00:41:14;101881.99;;;-2.13;75.28
54924;BME280;40825;52.270;20.984;2023-03-01T00:43:40;101893.39;;;-2.15;75.77
54924;BME280;40825;52.270;20.984;2023-03-01T00:46:11;101892.23;;;-2.16;75.27
54924;BME280;40825;52.270;20.984;2023-03-01T00:48:36;101887.19;;;-2.16;76.37
54924;BME280;40825;52.270;20.984;2023-03-01T00:51:17;101889.14;;;-2.17;74.78
54924;BME280;40825;52.270;20.984;2023-03-01T00:53:43;101885.66;;;-2.17;75.49
54924;BME280;40825;52.270;20.984;2023-03-01T00:56:12;101886.95;;;-2.19;75.33
54924;BME280;40825;52.270;20.984;2023-03-01T00:58:38;101881.21;;;-2.19;75.61
54924;BME280;40825;52.270;20.984;2023-03-01T01:01:13;101878.59;;;-2.19;75.59
54924;BME280;40825;52.270;20.984;2023-03-01T01:06:39;101877.91;;;-2.19;75.58
54924;BME280;40825;52.270;20.984;2023-03-01T01:09:06;101866.38;;;-2.19;76.32
54924;BME280;40825;52.270;20.984;2023-03-01T01:11:32;101858.87;;;-2.19;75.44
54924;BME280;40825;52.270;20.984;2023-03-01T01:13:58;101857.67;;;-2.19;76.35
54924;BME280;40825;52.270;20.984;2023-03-01T01:16:26;101855.41;;;-2.19;76.12
54924;BME280;40825;52.270;20.984;2023-03-01T01:18:52;101855.84;;;-2.18;75.04
54924;BME280;40825;52.270;20.984;2023-03-01T01:21:22;101855.04;;;-2.15;74.76
54924;BME280;40825;52.270;20.984;2023-03-01T01:23:48;101854.84;;;-2.14;75.43
54924;BME280;40825;52.270;20.984;2023-03-01T01:26:17;101848.48;;;-2.16;75.93
54924;BME280;40825;52.270;20.984;2023-03-01T01:28:42;101850.64;;;-2.18;75.81
54924;BME280;40825;52.270;20.984;2023-03-01T01:31:08;101844.85;;;-2.17;75.27
54924;BME280;40825;52.270;20.984;2023-03-01T01:33:34;101841.73;;;-2.18;75.90
54924;BME280;40825;52.270;20.984;2023-03-01T01:36:00;101842.33;;;-2.20;75.51
54924;BME280;40825;52.270;20.984;2023-03-01T01:38:25;101839.61;;;-2.21;75.25
54924;BME280;40825;52.270;20.984;2023-03-01T01:40:51;101845.75;;;-2.22;75.46
54924;BME280;40825;52.270;20.984;2023-03-01T01:45:55;101840.77;;;-2.24;74.90
54924;BME280;40825;52.270;20.984;2023-03-01T01:48:24;101841.05;;;-2.22;75.21
54924;BME280;40825;52.270;20.984;2023-03-01T01:50:58;101833.77;;;-2.19;74.64
54924;BME280;40825;52.270;20.984;2023-03-01T01:53:25;101825.80;;;-2.17;74.74
54924;BME280;40825;52.270;20.984;2023-03-01T01:55:54;101830.95;;;-2.15;74.73
54924;BME280;40825;52.270;20.984;2023-03-01T01:58:23;101830.59;;;-2.14;74.46
54924;BME280;40825;52.270;20.984;2023-03-01T02:00:49;101832.88;;;-2.15;75.86
54924;BME280;40825;52.270;20.984;2023-03-01T02:03:23;101826.60;;;-2.15;74.74
54924;BME280;40825;52.270;20.984;2023-03-01T02:08:17;101823.66;;;-2.15;75.49
54924;BME280;40825;52.270;20.984;2023-03-01T02:10:45;101820.52;;;-2.15;75.15
54924;BME280;40825;52.270;20.984;2023-03-01T02:13:12;101821.44;;;-2.16;75.22
54924;BME280;40825;52.270;20.984;2023-03-01T02:15:39;101816.97;;;-2.18;75.00
54924;BME280;40825;52.270;20.984;2023-03-01T02:18:06;101821.77;;;-2.20;75.39
54924;BME280;40825;52.270;20.984;2023-03-01T02:23:10;101818.17;;;-2.25;76.00
54924;BME280;40825;52.270;20.984;2023-03-01T02:26:07;101818.00;;;-2.29;76.24
54924;BME280;40825;52.270;20.984;2023-03-01T02:28:40;101810.65;;;-2.32;76.71
54924;BME280;40825;52.270;20.984;2023-03-01T02:31:08;101812.03;;;-2.32;75.96
54924;BME280;40825;52.270;20.984;2023-03-01T02:33:53;101806.48;;;-2.33;75.83
54924;BME280;40825;52.270;20.984;2023-03-01T02:36:24;101802.77;;;-2.31;75.93
54924;BME280;40825;52.270;20.984;2023-03-01T02:38:53;101796.67;;;-2.32;76.16
54924;BME280;40825;52.270;20.984;2023-03-01T02:41:23;101796.98;;;-2.31;75.70
54924;BME280;40825;52.270;20.984;2023-03-01T02:43:49;101799.83;;;-2.32;76.11
54924;BME280;40825;52.270;20.984;2023-03-01T02:46:18;101799.89;;;-2.33;75.66
54924;BME280;40825;52.270;20.984;2023-03-01T02:48:54;101800.27;;;-2.38;77.68
54924;BME280;40825;52.270;20.984;2023-03-01T02:51:31;101804.08;;;-2.41;76.16
54924;BME280;40825;52.270;20.984;2023-03-01T02:56:37;101797.77;;;-2.44;77.75
54924;BME280;40825;52.270;20.984;2023-03-01T02:59:02;101787.83;;;-2.48;78.27
54924;BME280;40825;52.270;20.984;2023-03-01T03:01:29;101780.41;;;-2.50;77.56
54924;BME280;40825;52.270;20.984;2023-03-01T03:04:11;101777.03;;;-2.52;78.36
54924;BME280;40825;52.270;20.984;2023-03-01T03:06:43;101777.46;;;-2.54;76.94
54924;BME280;40825;52.270;20.984;2023-03-01T03:09:09;101776.09;;;-2.54;77.57
54924;BME280;40825;52.270;20.984;2023-03-01T03:11:35;101780.61;;;-2.54;76.40
54924;BME280;40825;52.270;20.984;2023-03-01T03:14:02;101771.83;;;-2.53;76.87
54924;BME280;40825;52.270;20.984;2023-03-01T03:16:28;101769.88;;;-2.52;76.95
54924;BME280;40825;52.270;20.984;2023-03-01T03:18:55;101758.02;;;-2.52;76.93
54924;BME280;40825;52.270;20.984;2023-03-01T03:21:31;101756.64;;;-2.52;77.30
54924;BME280;40825;52.270;20.984;2023-03-01T03:23:57;101755.77;;;-2.52;77.19
54924;BME280;40825;52.270;20.984;2023-03-01T03:26:23;101760.33;;;-2.53;77.70
54924;BME280;40825;52.270;20.984;2023-03-01T03:28:49;101757.48;;;-2.55;78.11
54924;BME280;40825;52.270;20.984;2023-03-01T03:31:14;101749.58;;;-2.58;78.59
54924;BME280;40825;52.270;20.984;2023-03-01T03:33:40;101749.62;;;-2.58;77.50
54924;BME280;40825;52.270;20.984;2023-03-01T03:36:06;101749.13;;;-2.60;78.26
54924;BME280;40825;52.270;20.984;2023-03-01T03:38:31;101758.31;;;-2.58;76.80
54924;BME280;40825;52.270;20.984;2023-03-01T03:41:04;101755.67;;;-2.58;77.61
54924;BME280;40825;52.270;20.984;2023-03-01T03:43:32;101757.92;;;-2.57;76.95
54924;BME280;40825;52.270;20.984;2023-03-01T03:45:58;101764.45;;;-2.55;76.79
54924;BME280;40825;52.270;20.984;2023-03-01T03:48:25;101760.48;;;-2.52;76.71
54924;BME280;40825;52.270;20.984;2023-03-01T03:50:55;101755.16;;;-2.51;76.89
54924;BME280;40825;52.270;20.984;2023-03-01T03:53:23;101751.79;;;-2.49;76.75
54924;BME280;40825;52.270;20.984;2023-03-01T03:55:49;101746.23;;;-2.49;77.21
54924;BME280;40825;52.270;20.984;2023-03-01T03:58:15;101743.95;;;-2.49;76.82
54924;BME280;40825;52.270;20.984;2023-03-01T04:00:45;101745.58;;;-2.46;76.64
54924;BME280;40825;52.270;20.984;2023-03-01T04:03:13;101746.80;;;-2.46;77.40
54924;BME280;40825;52.270;20.984;2023-03-01T04:05:40;101732.94;;;-2.48;77.60
54924;BME280;40825;52.270;20.984;2023-03-01T04:08:06;101729.98;;;-2.52;78.58
54924;BME280;40825;52.270;20.984;2023-03-01T04:10:38;101725.95;;;-2.55;78.49
54924;BME280;40825;52.270;20.984;2023-03-01T04:13:04;101721.89;;;-2.58;78.49
54924;BME280;40825;52.270;20.984;2023-03-01T04:15:31;101717.56;;;-2.63;79.27
54924;BME280;40825;52.270;20.984;2023-03-01T04:17:58;101724.82;;;-2.65;79.03
54924;BME280;40825;52.270;20.984;2023-03-01T04:20:26;101735.48;;;-2.66;78.35
54924;BME280;40825;52.270;20.984;2023-03-01T04:28:25;101734.73;;;-2.65;78.25
54924;BME280;40825;52.270;20.984;2023-03-01T04:30:52;101728.04;;;-2.63;78.30
54924;BME280;40825;52.270;20.984;2023-03-01T04:33:19;101725.48;;;-2.60;78.23
54924;BME280;40825;52.270;20.984;2023-03-01T04:35:45;101720.75;;;-2.59;77.80
54924;BME280;40825;52.270;20.984;2023-03-01T04:38:15;101715.12;;;-2.59;78.61
54924;BME280;40825;52.270;20.984;2023-03-01T04:40:42;101719.17;;;-2.60;78.68
54924;BME280;40825;52.270;20.984;2023-03-01T04:43:10;101716.93;;;-2.60;78.55
54924;BME280;40825;52.270;20.984;2023-03-01T04:45:36;101705.95;;;-2.60;78.11
54924;BME280;40825;52.270;20.984;2023-03-01T04:48:02;101698.83;;;-2.60;78.90
54924;BME280;40825;52.270;20.984;2023-03-01T04:50:29;101699.08;;;-2.62;78.55
54924;BME280;40825;52.270;20.984;2023-03-01T04:52:55;101698.85;;;-2.65;79.26
54924;BME280;40825;52.270;20.984;2023-03-01T04:55:26;101698.91;;;-2.66;79.62
54924;BME280;40825;52.270;20.984;2023-03-01T04:57:53;101694.65;;;-2.68;79.71
54924;BME280;40825;52.270;20.984;2023-03-01T05:00:19;101696.84;;;-2.67;79.39
54924;BME280;40825;52.270;20.984;2023-03-01T05:02:47;101700.41;;;-2.64;78.30
54924;BME280;40825;52.270;20.984;2023-03-01T05:05:14;101692.67;;;-2.63;78.44
54924;BME280;40825;52.270;20.984;2023-03-01T05:07:40;101690.23;;;-2.63;78.53
54924;BME280;40825;52.270;20.984;2023-03-01T05:10:06;101692.30;;;-2.63;78.87
54924;BME280;40825;52.270;20.984;2023-03-01T05:12:32;101698.27;;;-2.64;78.96
54924;BME280;40825;52.270;20.984;2023-03-01T05:14:57;101706.67;;;-2.64;79.17
54924;BME280;40825;52.270;20.984;2023-03-01T05:17:23;101710.69;;;-2.65;78.83
54924;BME280;40825;52.270;20.984;2023-03-01T05:19:49;101706.54;;;-2.65;79.74
54924;BME280;40825;52.270;20.984;2023-03-01T05:22:15;101705.52;;;-2.66;79.12
54924;BME280;40825;52.270;20.984;2023-03-01T05:24:40;101709.30;;;-2.68;80.27
54924;BME280;40825;52.270;20.984;2023-03-01T05:27:06;101710.77;;;-2.70;79.35
54924;BME280;40825;52.270;20.984;2023-03-01T05:29:32;101717.52;;;-2.73;80.46
54924;BME280;40825;52.270;20.984;2023-03-01T05:32:02;101724.47;;;-2.72;79.76
54924;BME280;40825;52.270;20.984;2023-03-01T05:34:30;101728.34;;;-2.70;78.74
54924;BME280;40825;52.270;20.984;2023-03-01T05:36:57;101727.17;;;-2.67;79.31
54924;BME280;40825;52.270;20.984;2023-03-01T05:39:25;101735.61;;;-2.64;78.97
54924;BME280;40825;52.270;20.984;2023-03-01T05:41:56;101736.38;;;-2.62;78.86
54924;BME280;40825;52.270;20.984;2023-03-01T05:44:22;101733.83;;;-2.60;79.27
54924;BME280;40825;52.270;20.984;2023-03-01T05:46:48;101737.41;;;-2.58;79.73
54924;BME280;40825;52.270;20.984;2023-03-01T05:49:15;101741.72;;;-2.57;79.83
54924;BME280;40825;52.270;20.984;2023-03-01T05:51:41;101743.70;;;-2.55;79.00
54924;BME280;40825;52.270;20.984;2023-03-01T05:54:08;101741.84;;;-2.52;79.66
54924;BME280;40825;52.270;20.984;2023-03-01T05:56:35;101744.06;;;-2.52;80.17
54924;BME280;40825;52.270;20.984;2023-03-01T05:59:01;101741.94;;;-2.51;80.08
54924;BME280;40825;52.270;20.984;2023-03-01T06:01:27;101749.34;;;-2.49;79.85
54924;BME280;40825;52.270;20.984;2023-03-01T06:03:53;101743.98;;;-2.46;80.28
54924;BME280;40825;52.270;20.984;2023-03-01T06:06:18;101741.14;;;-2.41;79.73
54924;BME280;40825;52.270;20.984;2023-03-01T06:08:44;101742.21;;;-2.34;79.34
54924;BME280;40825;52.270;20.984;2023-03-01T06:11:10;101740.81;;;-2.27;79.02
54924;BME280;40825;52.270;20.984;2023-03-01T06:13:36;101741.98;;;-2.18;79.16
54924;BME280;40825;52.270;20.984;2023-03-01T06:16:06;101735.70;;;-2.11;78.89
54924;BME280;40825;52.270;20.984;2023-03-01T06:18:32;101736.04;;;-2.00;78.95
54924;BME280;40825;52.270;20.984;2023-03-01T06:20:57;101735.48;;;-1.92;78.94
54924;BME280;40825;52.270;20.984;2023-03-01T06:23:23;101731.76;;;-1.87;78.98
54924;BME280;40825;52.270;20.984;2023-03-01T06:25:50;101731.10;;;-1.81;78.76
54924;BME280;40825;52.270;20.984;2023-03-01T06:28:16;101733.08;;;-1.72;78.55
54924;BME280;40825;52.270;20.984;2023-03-01T06:30:41;101733.48;;;-1.62;78.43
54924;BME280;40825;52.270;20.984;2023-03-01T06:33:07;101734.19;;;-1.48;78.10
54924;BME280;40825;52.270;20.984;2023-03-01T06:35:33;101735.13;;;-1.33;77.96
54924;BME280;40825;52.270;20.984;2023-03-01T06:38:00;101733.48;;;-1.15;77.71
54924;BME280;40825;52.270;20.984;2023-03-01T06:40:26;101734.98;;;-1.00;76.95
54924;BME280;40825;52.270;20.984;2023-03-01T06:42:52;101736.55;;;-0.77;76.69
54924;BME280;40825;52.270;20.984;2023-03-01T06:45:19;101738.86;;;-0.51;76.51
54924;BME280;40825;52.270;20.984;2023-03-01T06:47:46;101735.19;;;-0.33;75.66
54924;BME280;40825;52.270;20.984;2023-03-01T06:50:12;101739.02;;;-0.14;75.57
54924;BME280;40825;52.270;20.984;2023-03-01T06:52:38;101731.39;;;0.07;75.88
54924;BME280;40825;52.270;20.984;2023-03-01T06:55:05;101730.22;;;0.30;75.57
54924;BME280;40825;52.270;20.984;2023-03-01T06:57:31;101739.66;;;0.64;74.85
54924;BME280;40825;52.270;20.984;2023-03-01T06:59:56;101739.35;;;0.83;73.23
54924;BME280;40825;52.270;20.984;2023-03-01T07:02:22;101747.27;;;1.06;73.13
54924;BME280;40825;52.270;20.984;2023-03-01T07:04:51;101749.73;;;1.34;72.54
54924;BME280;40825;52.270;20.984;2023-03-01T07:07:17;101747.91;;;1.69;73.05
54924;BME280;40825;52.270;20.984;2023-03-01T07:09:44;101748.17;;;1.92;71.03
54924;BME280;40825;52.270;20.984;2023-03-01T07:12:09;101746.88;;;2.23;72.32
54924;BME280;40825;52.270;20.984;2023-03-01T07:14:35;101746.14;;;2.55;70.75
54924;BME280;40825;52.270;20.984;2023-03-01T07:17:00;101744.10;;;2.77;68.33
54924;BME280;40825;52.270;20.984;2023-03-01T07:19:26;101743.55;;;2.93;67.81
54924;BME280;40825;52.270;20.984;2023-03-01T07:21:52;101740.32;;;3.07;67.90
54924;BME280;40825;52.270;20.984;2023-03-01T07:24:17;101733.71;;;3.25;70.14
54924;BME280;40825;52.270;20.984;2023-03-01T07:26:43;101725.54;;;3.34;68.87
54924;BME280;40825;52.270;20.984;2023-03-01T07:29:10;101723.79;;;3.32;67.91
54924;BME280;40825;52.270;20.984;2023-03-01T07:31:35;101723.55;;;3.32;66.11
54924;BME280;40825;52.270;20.984;2023-03-01T07:34:02;101717.67;;;3.23;66.08
54924;BME280;40825;52.270;20.984;2023-03-01T07:36:28;101722.92;;;3.28;67.44
54924;BME280;40825;52.270;20.984;2023-03-01T07:38:53;101725.47;;;3.38;66.08
54924;BME280;40825;52.270;20.984;2023-03-01T07:41:21;101722.31;;;3.45;65.83
54924;BME280;40825;52.270;20.984;2023-03-01T07:43:46;101723.16;;;3.50;67.61
54924;BME280;40825;52.270;20.984;2023-03-01T07:46:12;101725.87;;;3.54;67.21
54924;BME280;40825;52.270;20.984;2023-03-01T07:48:37;101722.35;;;3.57;65.49
54924;BME280;40825;52.270;20.984;2023-03-01T07:51:05;101719.89;;;3.59;66.88
54924;BME280;40825;52.270;20.984;2023-03-01T07:53:31;101724.32;;;3.66;66.91
54924;BME280;40825;52.270;20.984;2023-03-01T07:56:25;101723.58;;;3.66;67.49
54924;BME280;40825;52.270;20.984;2023-03-01T07:58:50;101723.47;;;3.61;64.73
54924;BME280;40825;52.270;20.984;2023-03-01T08:01:19;101729.16;;;3.65;65.85
54924;BME280;40825;52.270;20.984;2023-03-01T08:03:44;101725.67;;;3.76;67.18
54924;BME280;40825;52.270;20.984;2023-03-01T08:06:11;101727.56;;;3.89;67.27
54924;BME280;40825;52.270;20.984;2023-03-01T08:08:37;101723.98;;;3.87;66.49
54924;BME280;40825;52.270;20.984;2023-03-01T08:11:04;101728.27;;;3.79;65.54
54924;BME280;40825;52.270;20.984;2023-03-01T08:13:32;101727.39;;;3.63;65.34
54924;BME280;40825;52.270;20.984;2023-03-01T08:16:06;101727.16;;;3.61;66.43
54924;BME280;40825;52.270;20.984;2023-03-01T08:18:32;101730.45;;;3.52;65.36
54924;BME280;40825;52.270;20.984;2023-03-01T08:21:04;101729.28;;;3.41;65.65
54924;BME280;40825;52.270;20.984;2023-03-01T08:23:31;101730.27;;;3.32;65.80
54924;BME280;40825;52.270;20.984;2023-03-01T08:26:07;101730.72;;;3.36;65.81
54924;BME280;40825;52.270;20.984;2023-03-01T08:28:34;101735.48;;;3.38;64.82
54924;BME280;40825;52.270;20.984;2023-03-01T08:30:59;101734.30;;;3.37;66.07
54924;BME280;40825;52.270;20.984;2023-03-01T08:33:25;101732.25;;;3.41;65.03
54924;BME280;40825;52.270;20.984;2023-03-01T08:35:51;101724.36;;;3.34;65.10
54924;BME280;40825;52.270;20.984;2023-03-01T08:38:16;101719.10;;;3.30;64.88
54924;BME280;40825;52.270;20.984;2023-03-01T08:40:42;101713.02;;;3.22;65.02
54924;BME280;40825;52.270;20.984;2023-03-01T08:43:07;101716.05;;;3.24;65.61
54924;BME280;40825;52.270;20.984;2023-03-01T08:45:33;101722.89;;;3.39;65.75
54924;BME280;40825;52.270;20.984;2023-03-01T08:47:58;101725.33;;;3.52;64.84
54924;BME280;40825;52.270;20.984;2023-03-01T08:50:24;101729.61;;;3.51;64.75
54924;BME280;40825;52.270;20.984;2023-03-01T08:52:50;101725.01;;;3.59;65.32
54924;BME280;40825;52.270;20.984;2023-03-01T08:55:15;101731.39;;;3.73;65.23
54924;BME280;40825;52.270;20.984;2023-03-01T08:57:43;101728.67;;;3.77;64.53
54924;BME280;40825;52.270;20.984;2023-03-01T09:00:09;101728.19;;;3.71;65.03
54924;BME280;40825;52.270;20.984;2023-03-01T09:02:36;101730.06;;;3.81;65.34
54924;BME280;40825;52.270;20.984;2023-03-01T09:05:02;101729.58;;;3.93;64.99
54924;BME280;40825;52.270;20.984;2023-03-01T09:07:27;101726.20;;;4.03;64.50
54924;BME280;40825;52.270;20.984;2023-03-01T09:09:54;101727.43;;;4.22;64.72
54924;BME280;40825;52.270;20.984;2023-03-01T09:12:20;101730.17;;;4.42;64.80
54924;BME280;40825;52.270;20.984;2023-03-01T09:14:46;101726.69;;;4.57;64.65
54924;BME280;40825;52.270;20.984;2023-03-01T09:17:11;101725.27;;;4.72;64.59
54924;BME280;40825;52.270;20.984;2023-03-01T09:19:37;101718.09;;;4.82;64.49
54924;BME280;40825;52.270;20.984;2023-03-01T09:22:03;101712.79;;;4.82;63.59
54924;BME280;40825;52.270;20.984;2023-03-01T09:24:30;101713.89;;;4.77;63.99
54924;BME280;40825;52.270;20.984;2023-03-01T09:26:56;101710.69;;;4.68;64.21
54924;BME280;40825;52.270;20.984;2023-03-01T09:29:22;101708.64;;;4.65;64.73
54924;BME280;40825;52.270;20.984;2023-03-01T09:31:48;101704.19;;;4.64;64.28
54924;BME280;40825;52.270;20.984;2023-03-01T09:34:14;101701.56;;;4.54;64.73
54924;BME280;40825;52.270;20.984;2023-03-01T09:36:49;101695.23;;;4.56;65.01
54924;BME280;40825;52.270;20.984;2023-03-01T09:39:15;101695.98;;;4.76;65.30
54924;BME280;40825;52.270;20.984;2023-03-01T09:42:02;101693.98;;;4.99;64.53
54924;BME280;40825;52.270;20.984;2023-03-01T09:44:38;101690.39;;;5.23;64.59
54924;BME280;40825;52.270;20.984;2023-03-01T09:47:14;101693.79;;;5.46;63.58
54924;BME280;40825;52.270;20.984;2023-03-01T09:49:41;101694.42;;;5.61;64.44
54924;BME280;40825;52.270;20.984;2023-03-01T09:52:45;101688.94;;;5.78;63.29
54924;BME280;40825;52.270;20.984;2023-03-01T09:55:16;101688.13;;;5.97;62.78
54924;BME280;40825;52.270;20.984;2023-03-01T10:00:33;101682.80;;;6.14;62.16
54924;BME280;40825;52.270;20.984;2023-03-01T10:06:06;101673.10;;;6.31;59.84
54924;BME280;40825;52.270;20.984;2023-03-01T10:08:42;101667.88;;;6.28;58.99
54924;BME280;40825;52.270;20.984;2023-03-01T10:11:30;101662.14;;;6.29;59.45
54924;BME280;40825;52.270;20.984;2023-03-01T10:19:40;101656.17;;;6.62;59.18
54924;BME280;40825;52.270;20.984;2023-03-01T10:22:26;101656.40;;;6.81;59.10
54924;BME280;40825;52.270;20.984;2023-03-01T10:24:56;101656.31;;;6.95;58.51
54924;BME280;40825;52.270;20.984;2023-03-01T10:27:32;101654.64;;;7.06;58.58
54924;BME280;40825;52.270;20.984;2023-03-01T10:30:16;101647.48;;;7.07;58.05
54924;BME280;40825;52.270;20.984;2023-03-01T10:32:47;101648.02;;;7.12;59.42
54924;BME280;40825;52.270;20.984;2023-03-01T10:35:22;101650.48;;;7.29;60.04
54924;BME280;40825;52.270;20.984;2023-03-01T10:40:23;101649.70;;;7.34;58.87
54924;BME280;40825;52.270;20.984;2023-03-01T10:42:51;101647.61;;;7.33;57.19
54924;BME280;40825;52.270;20.984;2023-03-01T10:45:30;101650.67;;;7.25;58.31
54924;BME280;40825;52.270;20.984;2023-03-01T10:48:26;101650.98;;;7.21;59.48
54924;BME280;40825;52.270;20.984;2023-03-01T10:53:27;101641.27;;;7.03;58.59
54924;BME280;40825;52.270;20.984;2023-03-01T10:56:11;101640.70;;;6.97;58.94
54924;BME280;40825;52.270;20.984;2023-03-01T10:58:41;101642.28;;;6.93;58.52
54924;BME280;40825;52.270;20.984;2023-03-01T11:04:07;101645.66;;;6.64;58.87
54924;BME280;40825;52.270;20.984;2023-03-01T11:06:37;101643.63;;;6.57;59.50
54924;BME280;40825;52.270;20.984;2023-03-01T11:09:19;101639.73;;;6.55;59.27
54924;BME280;40825;52.270;20.984;2023-03-01T11:11:45;101635.50;;;6.53;59.21
54924;BME280;40825;52.270;20.984;2023-03-01T11:14:17;101633.44;;;6.52;59.54
54924;BME280;40825;52.270;20.984;2023-03-01T11:16:46;101628.77;;;6.57;59.72
54924;BME280;40825;52.270;20.984;2023-03-01T11:24:41;101615.70;;;6.51;59.53
54924;BME280;40825;52.270;20.984;2023-03-01T11:27:24;101612.73;;;6.52;59.81
54924;BME280;40825;52.270;20.984;2023-03-01T11:30:20;101613.61;;;6.52;59.52
54924;BME280;40825;52.270;20.984;2023-03-01T11:35:35;101613.92;;;6.41;59.71
54924;BME280;40825;52.270;20.984;2023-03-01T11:40:39;101604.91;;;6.36;59.83
54924;BME280;40825;52.270;20.984;2023-03-01T11:56:50;101601.80;;;6.23;60.46
54924;BME280;40825;52.270;20.984;2023-03-01T12:03:23;101603.23;;;6.56;60.91
54924;BME280;40825;52.270;20.984;2023-03-01T12:32:40;101594.70;;;7.01;61.76
54924;BME280;40825;52.270;20.984;2023-03-01T12:43:57;101584.98;;;6.89;62.59
54924;BME280;40825;52.270;20.984;2023-03-01T12:49:34;101582.63;;;6.81;62.94
54924;BME280;40825;52.270;20.984;2023-03-01T12:52:12;101580.80;;;6.76;62.95
54924;BME280;40825;52.270;20.984;2023-03-01T12:54:38;101577.86;;;6.65;63.04
54924;BME280;40825;52.270;20.984;2023-03-01T13:02:40;101574.57;;;6.72;63.26
54924;BME280;40825;52.270;20.984;2023-03-01T13:05:32;101572.48;;;6.68;63.34
54924;BME280;40825;52.270;20.984;2023-03-01T13:11:21;101566.39;;;6.73;63.57
54924;BME280;40825;52.270;20.984;2023-03-01T13:13:48;101565.84;;;6.87;63.52
54924;BME280;40825;52.270;20.984;2023-03-01T13:16:42;101568.10;;;7.01;63.56
54924;BME280;40825;52.270;20.984;2023-03-01T13:19:24;101568.96;;;7.25;63.34
54924;BME280;40825;52.270;20.984;2023-03-01T13:21:53;101568.38;;;7.51;62.71
54924;BME280;40825;52.270;20.984;2023-03-01T13:24:27;101559.92;;;7.70;63.01
54924;BME280;40825;52.270;20.984;2023-03-01T13:29:48;101552.66;;;8.07;61.85
54924;BME280;40825;52.270;20.984;2023-03-01T13:34:55;101554.84;;;8.27;61.61
54924;BME280;40825;52.270;20.984;2023-03-01T13:37:27;101548.67;;;8.34;61.61
54924;BME280;40825;52.270;20.984;2023-03-01T13:39:56;101542.45;;;8.43;61.57
54924;BME280;40825;52.270;20.984;2023-03-01T13:42:37;101543.58;;;8.48;61.01
54924;BME280;40825;52.270;20.984;2023-03-01T13:45:13;101542.96;;;8.45;61.51
54924;BME280;40825;52.270;20.984;2023-03-01T13:47:41;101545.66;;;8.40;61.88
54924;BME280;40825;52.270;20.984;2023-03-01T13:50:18;101547.85;;;8.37;61.53
54924;BME280;40825;52.270;20.984;2023-03-01T13:52:54;101544.57;;;8.31;61.71
54924;BME280;40825;52.270;20.984;2023-03-01T13:55:36;101542.80;;;8.31;61.21
54924;BME280;40825;52.270;20.984;2023-03-01T13:58:27;101539.53;;;8.16;61.22
54924;BME280;40825;52.270;20.984;2023-03-01T14:01:02;101538.20;;;7.92;60.87
54924;BME280;40825;52.270;20.984;2023-03-01T14:03:29;101532.14;;;7.62;61.47
54924;BME280;40825;52.270;20.984;2023-03-01T14:08:25;101537.70;;;7.34;61.94
54924;BME280;40825;52.270;20.984;2023-03-01T14:10:57;101536.23;;;7.21;62.15
54924;BME280;40825;52.270;20.984;2023-03-01T14:21:46;101525.02;;;6.80;62.84
54924;BME280;40825;52.270;20.984;2023-03-01T14:24:20;101522.53;;;6.77;62.76
54924;BME280;40825;52.270;20.984;2023-03-01T14:26:47;101526.38;;;6.73;62.97
54924;BME280;40825;52.270;20.984;2023-03-01T14:29:34;101521.70;;;6.68;63.04
54924;BME280;40825;52.270;20.984;2023-03-01T14:34:35;101517.00;;;6.57;63.32
54924;BME280;40825;52.270;20.984;2023-03-01T14:37:25;101515.65;;;6.52;63.86
54924;BME280;40825;52.270;20.984;2023-03-01T14:39:52;101515.23;;;6.49;63.85
54924;BME280;40825;52.270;20.984;2023-03-01T14:42:21;101508.81;;;6.45;64.16
54924;BME280;40825;52.270;20.984;2023-03-01T14:44:50;101509.11;;;6.42;64.36
54924;BME280;40825;52.270;20.984;2023-03-01T14:47:34;101505.94;;;6.34;64.32
54924;BME280;40825;52.270;20.984;2023-03-01T14:50:19;101500.59;;;6.28;64.33
54924;BME280;40825;52.270;20.984;2023-03-01T14:52:48;101495.18;;;6.23;64.33
54924;BME280;40825;52.270;20.984;2023-03-01T14:55:29;101495.23;;;6.17;64.57
54924;BME280;40825;52.270;20.984;2023-03-01T14:57:57;101493.48;;;6.12;64.49
54924;BME280;40825;52.270;20.984;2023-03-01T15:00:28;101494.36;;;6.10;64.80
54924;BME280;40825;52.270;20.984;2023-03-01T15:02:56;101489.95;;;6.06;65.37
54924;BME280;40825;52.270;20.984;2023-03-01T15:05:30;101486.93;;;6.04;65.22
54924;BME280;40825;52.270;20.984;2023-03-01T15:07:58;101485.28;;;6.03;65.24
54924;BME280;40825;52.270;20.984;2023-03-01T15:10:30;101484.77;;;6.05;65.60